sensor_id;sensor_type;location;lat;lon;timestamp;temperature;humidity
39519;DHT22;25200;53.394;10.414;2022-12-08T00:01:09;2.10;91.20
39519;DHT22;25200;53.394;10.414;2022-12-08T00:03:36;2.10;91.00
39519;DHT22;25200;53.394;10.414;2022-12-08T00:06:04;2.10;91.00
39519;DHT22;25200;53.394;10.414;2022-12-08T00:08:49;2.10;91.00
39519;DHT22;25200;53.394;10.414;2022-12-08T00:11:33;2.10;91.00
39519;DHT22;25200;53.394;10.414;2022-12-08T00:13:59;2.10;91.00
39519;DHT22;25200;53.394;10.414;2022-12-08T00:16:25;2.10;91.10
39519;DHT22;25200;53.394;10.414;2022-12-08T00:18:51;2.10;91.00
39519;DHT22;25200;53.394;10.414;2022-12-08T00:21:17;2.10;91.00
39519;DHT22;25200;53.394;10.414;2022-12-08T00:23:42;2.20;91.00
39519;DHT22;25200;53.394;10.414;2022-12-08T00:26:08;2.10;91.00
39519;DHT22;25200;53.394;10.414;2022-12-08T00:28:34;2.10;91.10
39519;DHT22;25200;53.394;10.414;2022-12-08T00:31:07;2.10;91.10
39519;DHT22;25200;53.394;10.414;2022-12-08T00:33:33;2.10;91.10
39519;DHT22;25200;53.394;10.414;2022-12-08T00:36:07;2.10;91.00
39519;DHT22;25200;53.394;10.414;2022-12-08T00:38:32;2.20;91.00
39519;DHT22;25200;53.394;10.414;2022-12-08T00:40:58;2.20;91.10
39519;DHT22;25200;53.394;10.414;2022-12-08T00:43:24;2.20;91.10
39519;DHT22;25200;53.394;10.414;2022-12-08T00:45:49;2.20;91.10
39519;DHT22;25200;53.394;10.414;2022-12-08T00:48:15;2.20;91.10
39519;DHT22;25200;53.394;10.414;2022-12-08T00:50:41;2.20;91.10
39519;DHT22;25200;53.394;10.414;2022-12-08T00:53:06;2.20;91.00
39519;DHT22;25200;53.394;10.414;2022-12-08T00:55:32;2.20;91.20
39519;DHT22;25200;53.394;10.414;2022-12-08T00:57:57;2.20;91.20
39519;DHT22;25200;53.394;10.414;2022-12-08T01:00:23;2.20;91.30
39519;DHT22;25200;53.394;10.414;2022-12-08T01:02:49;2.20;91.20
39519;DHT22;25200;53.394;10.414;2022-12-08T01:05:14;2.20;91.20
39519;DHT22;25200;53.394;10.414;2022-12-08T01:07:40;2.20;91.20
39519;DHT22;25200;53.394;10.414;2022-12-08T01:10:06;2.20;91.10
39519;DHT22;25200;53.394;10.414;2022-12-08T01:12:32;2.20;91.20
39519;DHT22;25200;53.394;10.414;2022-12-08T01:14:58;2.20;91.10
39519;DHT22;25200;53.394;10.414;2022-12-08T01:17:24;2.20;91.30
39519;DHT22;25200;53.394;10.414;2022-12-08T01:19:50;2.20;91.30
39519;DHT22;25200;53.394;10.414;2022-12-08T01:22:15;2.20;91.30
39519;DHT22;25200;53.394;10.414;2022-12-08T01:24:41;2.20;91.30
39519;DHT22;25200;53.394;10.414;2022-12-08T01:27:07;2.20;91.30
39519;DHT22;25200;53.394;10.414;2022-12-08T01:29:32;2.20;91.20
39519;DHT22;25200;53.394;10.414;2022-12-08T01:31:58;2.20;91.40
39519;DHT22;25200;53.394;10.414;2022-12-08T01:34:24;2.20;91.30
39519;DHT22;25200;53.394;10.414;2022-12-08T01:36:50;2.20;91.20
39519;DHT22;25200;53.394;10.414;2022-12-08T01:39:17;2.20;91.20
39519;DHT22;25200;53.394;10.414;2022-12-08T01:41:44;2.20;91.10
39519;DHT22;25200;53.394;10.414;2022-12-08T01:46:40;2.20;91.30
39519;DHT22;25200;53.394;10.414;2022-12-08T01:49:19;2.20;91.50
39519;DHT22;25200;53.394;10.414;2022-12-08T01:54:23;2.20;91.10
39519;DHT22;25200;53.394;10.414;2022-12-08T01:56:59;2.20;91.10
39519;DHT22;25200;53.394;10.414;2022-12-08T01:59:27;2.20;91.30
39519;DHT22;25200;53.394;10.414;2022-12-08T02:01:55;2.20;91.20
39519;DHT22;25200;53.394;10.414;2022-12-08T02:04:21;2.20;91.20
39519;DHT22;25200;53.394;10.414;2022-12-08T02:06:48;2.20;91.30
39519;DHT22;25200;53.394;10.414;2022-12-08T02:09:15;2.20;91.30
39519;DHT22;25200;53.394;10.414;2022-12-08T02:11:41;2.20;91.10
39519;DHT22;25200;53.394;10.414;2022-12-08T02:14:08;2.20;91.20
39519;DHT22;25200;53.394;10.414;2022-12-08T02:22:14;2.30;91.20
39519;DHT22;25200;53.394;10.414;2022-12-08T02:40:28;2.30;91.40
39519;DHT22;25200;53.394;10.414;2022-12-08T02:43:18;2.30;91.40
39519;DHT22;25200;53.394;10.414;2022-12-08T02:45:54;2.40;91.20
39519;DHT22;25200;53.394;10.414;2022-12-08T02:48:21;2.40;91.50
39519;DHT22;25200;53.394;10.414;2022-12-08T02:50:46;2.40;91.30
39519;DHT22;25200;53.394;10.414;2022-12-08T02:53:12;2.40;91.30
39519;DHT22;25200;53.394;10.414;2022-12-08T02:56:02;2.50;91.30
39519;DHT22;25200;53.394;10.414;2022-12-08T03:04:40;2.50;91.40
39519;DHT22;25200;53.394;10.414;2022-12-08T03:10:25;2.50;91.30
39519;DHT22;25200;53.394;10.414;2022-12-08T03:13:02;2.50;91.40
39519;DHT22;25200;53.394;10.414;2022-12-08T03:15:30;2.50;91.50
39519;DHT22;25200;53.394;10.414;2022-12-08T03:17:57;2.50;91.40
39519;DHT22;25200;53.394;10.414;2022-12-08T03:20:26;2.60;91.40
39519;DHT22;25200;53.394;10.414;2022-12-08T03:22:57;2.60;91.40
39519;DHT22;25200;53.394;10.414;2022-12-08T03:25:25;2.60;91.40
39519;DHT22;25200;53.394;10.414;2022-12-08T03:27:51;2.60;91.40
39519;DHT22;25200;53.394;10.414;2022-12-08T03:30:18;2.60;91.40
39519;DHT22;25200;53.394;10.414;2022-12-08T03:33:03;2.60;91.60
39519;DHT22;25200;53.394;10.414;2022-12-08T03:35:33;2.60;91.50
39519;DHT22;25200;53.394;10.414;2022-12-08T03:38:03;2.60;91.30
39519;DHT22;25200;53.394;10.414;2022-12-08T03:40:29;2.70;91.30
39519;DHT22;25200;53.394;10.414;2022-12-08T03:42:54;2.60;91.50
39519;DHT22;25200;53.394;10.414;2022-12-08T03:45:20;2.70;91.50
39519;DHT22;25200;53.394;10.414;2022-12-08T03:47:46;2.70;91.30
39519;DHT22;25200;53.394;10.414;2022-12-08T03:50:11;2.70;91.60
39519;DHT22;25200;53.394;10.414;2022-12-08T03:52:37;2.70;91.50
39519;DHT22;25200;53.394;10.414;2022-12-08T03:55:03;2.70;91.60
39519;DHT22;25200;53.394;10.414;2022-12-08T03:57:29;2.70;91.50
39519;DHT22;25200;53.394;10.414;2022-12-08T03:59:54;2.80;91.60
39519;DHT22;25200;53.394;10.414;2022-12-08T04:02:20;2.80;91.40
39519;DHT22;25200;53.394;10.414;2022-12-08T04:04:45;2.80;91.40
39519;DHT22;25200;53.394;10.414;2022-12-08T04:07:11;2.80;91.60
39519;DHT22;25200;53.394;10.414;2022-12-08T04:09:37;2.80;91.50
39519;DHT22;25200;53.394;10.414;2022-12-08T04:12:03;2.80;91.50
39519;DHT22;25200;53.394;10.414;2022-12-08T04:14:29;2.90;91.50
39519;DHT22;25200;53.394;10.414;2022-12-08T04:16:54;2.90;91.40
39519;DHT22;25200;53.394;10.414;2022-12-08T04:19:20;2.90;91.30
39519;DHT22;25200;53.394;10.414;2022-12-08T04:21:46;3.00;91.40
39519;DHT22;25200;53.394;10.414;2022-12-08T04:24:11;3.00;91.40
39519;DHT22;25200;53.394;10.414;2022-12-08T04:26:37;3.00;91.30
39519;DHT22;25200;53.394;10.414;2022-12-08T04:29:03;3.00;91.40
39519;DHT22;25200;53.394;10.414;2022-12-08T04:31:28;3.00;91.40
39519;DHT22;25200;53.394;10.414;2022-12-08T04:33:54;3.00;91.30
39519;DHT22;25200;53.394;10.414;2022-12-08T04:36:20;3.00;91.30
39519;DHT22;25200;53.394;10.414;2022-12-08T04:38:45;3.00;91.30
39519;DHT22;25200;53.394;10.414;2022-12-08T04:41:11;3.00;91.30
39519;DHT22;25200;53.394;10.414;2022-12-08T04:43:37;3.00;91.30
39519;DHT22;25200;53.394;10.414;2022-12-08T04:46:06;3.00;91.30
39519;DHT22;25200;53.394;10.414;2022-12-08T04:48:32;3.00;91.30
39519;DHT22;25200;53.394;10.414;2022-12-08T04:50:59;3.00;91.20
39519;DHT22;25200;53.394;10.414;2022-12-08T04:53:24;3.00;91.30
39519;DHT22;25200;53.394;10.414;2022-12-08T04:55:51;3.00;91.30
39519;DHT22;25200;53.394;10.414;2022-12-08T04:58:19;3.10;91.40
39519;DHT22;25200;53.394;10.414;2022-12-08T05:00:45;3.00;91.30
39519;DHT22;25200;53.394;10.414;2022-12-08T05:03:11;3.10;91.30
39519;DHT22;25200;53.394;10.414;2022-12-08T05:05:36;3.10;91.30
39519;DHT22;25200;53.394;10.414;2022-12-08T05:08:03;3.10;91.30
39519;DHT22;25200;53.394;10.414;2022-12-08T05:10:29;3.10;91.30
39519;DHT22;25200;53.394;10.414;2022-12-08T05:12:54;3.10;91.30
39519;DHT22;25200;53.394;10.414;2022-12-08T05:15:20;3.10;91.60
39519;DHT22;25200;53.394;10.414;2022-12-08T05:17:46;3.10;91.30
39519;DHT22;25200;53.394;10.414;2022-12-08T05:20:11;3.10;91.30
39519;DHT22;25200;53.394;10.414;2022-12-08T05:22:37;3.10;91.30
39519;DHT22;25200;53.394;10.414;2022-12-08T05:25:03;3.10;91.30
39519;DHT22;25200;53.394;10.414;2022-12-08T05:27:28;3.10;91.30
39519;DHT22;25200;53.394;10.414;2022-12-08T05:29:54;3.20;91.30
39519;DHT22;25200;53.394;10.414;2022-12-08T05:32:20;3.20;91.30
39519;DHT22;25200;53.394;10.414;2022-12-08T05:34:45;3.10;91.20
39519;DHT22;25200;53.394;10.414;2022-12-08T05:37:11;3.20;91.30
39519;DHT22;25200;53.394;10.414;2022-12-08T05:39:37;3.20;91.30
39519;DHT22;25200;53.394;10.414;2022-12-08T05:42:02;3.20;91.30
39519;DHT22;25200;53.394;10.414;2022-12-08T05:44:28;3.20;91.30
39519;DHT22;25200;53.394;10.414;2022-12-08T05:46:54;3.20;91.20
39519;DHT22;25200;53.394;10.414;2022-12-08T05:49:19;3.20;91.30
39519;DHT22;25200;53.394;10.414;2022-12-08T05:51:45;3.10;91.20
39519;DHT22;25200;53.394;10.414;2022-12-08T05:54:11;3.10;91.30
39519;DHT22;25200;53.394;10.414;2022-12-08T05:56:36;3.10;91.40
39519;DHT22;25200;53.394;10.414;2022-12-08T05:59:05;3.10;91.50
39519;DHT22;25200;53.394;10.414;2022-12-08T06:01:31;3.10;91.40
39519;DHT22;25200;53.394;10.414;2022-12-08T06:03:58;3.10;91.40
39519;DHT22;25200;53.394;10.414;2022-12-08T06:06:25;3.10;91.40
39519;DHT22;25200;53.394;10.414;2022-12-08T06:08:50;3.10;91.40
39519;DHT22;25200;53.394;10.414;2022-12-08T06:11:24;3.10;91.40
39519;DHT22;25200;53.394;10.414;2022-12-08T06:13:50;3.10;91.40
39519;DHT22;25200;53.394;10.414;2022-12-08T06:16:17;3.10;91.40
39519;DHT22;25200;53.394;10.414;2022-12-08T06:18:43;3.10;91.40
39519;DHT22;25200;53.394;10.414;2022-12-08T06:21:11;3.10;91.40
39519;DHT22;25200;53.394;10.414;2022-12-08T06:23:37;3.10;91.40
39519;DHT22;25200;53.394;10.414;2022-12-08T06:26:03;3.10;91.40
39519;DHT22;25200;53.394;10.414;2022-12-08T06:28:31;3.10;91.40
39519;DHT22;25200;53.394;10.414;2022-12-08T06:30:57;3.10;91.40
39519;DHT22;25200;53.394;10.414;2022-12-08T06:33:24;3.10;91.40
39519;DHT22;25200;53.394;10.414;2022-12-08T06:35:49;3.10;91.40
39519;DHT22;25200;53.394;10.414;2022-12-08T06:38:15;3.10;91.30
39519;DHT22;25200;53.394;10.414;2022-12-08T06:40:41;3.20;91.30
39519;DHT22;25200;53.394;10.414;2022-12-08T06:43:06;3.20;91.30
39519;DHT22;25200;53.394;10.414;2022-12-08T06:45:32;3.20;91.30
39519;DHT22;25200;53.394;10.414;2022-12-08T06:47:57;3.20;91.30
39519;DHT22;25200;53.394;10.414;2022-12-08T06:50:25;3.20;91.30
39519;DHT22;25200;53.394;10.414;2022-12-08T06:52:50;3.20;91.50
39519;DHT22;25200;53.394;10.414;2022-12-08T06:55:16;3.20;91.30
39519;DHT22;25200;53.394;10.414;2022-12-08T06:57:42;3.20;91.30
39519;DHT22;25200;53.394;10.414;2022-12-08T07:00:08;3.20;91.20
39519;DHT22;25200;53.394;10.414;2022-12-08T07:02:33;3.20;91.20
39519;DHT22;25200;53.394;10.414;2022-12-08T07:04:59;3.20;91.20
39519;DHT22;25200;53.394;10.414;2022-12-08T07:07:25;3.20;91.30
39519;DHT22;25200;53.394;10.414;2022-12-08T07:09:50;3.20;91.20
39519;DHT22;25200;53.394;10.414;2022-12-08T07:12:16;3.20;91.20
39519;DHT22;25200;53.394;10.414;2022-12-08T07:14:41;3.30;91.30
39519;DHT22;25200;53.394;10.414;2022-12-08T07:17:07;3.30;91.30
39519;DHT22;25200;53.394;10.414;2022-12-08T07:19:33;3.30;91.30
39519;DHT22;25200;53.394;10.414;2022-12-08T07:21:58;3.30;91.30
39519;DHT22;25200;53.394;10.414;2022-12-08T07:24:24;3.30;91.50
39519;DHT22;25200;53.394;10.414;2022-12-08T07:26:50;3.30;91.30
39519;DHT22;25200;53.394;10.414;2022-12-08T07:29:15;3.30;91.30
39519;DHT22;25200;53.394;10.414;2022-12-08T07:31:41;3.30;91.30
39519;DHT22;25200;53.394;10.414;2022-12-08T07:34:07;3.30;91.30
39519;DHT22;25200;53.394;10.414;2022-12-08T07:36:32;3.30;91.20
39519;DHT22;25200;53.394;10.414;2022-12-08T07:38:58;3.30;91.20
39519;DHT22;25200;53.394;10.414;2022-12-08T07:41:25;3.30;91.20
39519;DHT22;25200;53.394;10.414;2022-12-08T07:43:52;3.30;91.20
39519;DHT22;25200;53.394;10.414;2022-12-08T07:46:20;3.30;91.20
39519;DHT22;25200;53.394;10.414;2022-12-08T07:48:46;3.30;91.20
39519;DHT22;25200;53.394;10.414;2022-12-08T07:51:13;3.30;91.20
39519;DHT22;25200;53.394;10.414;2022-12-08T07:53:44;3.30;91.20
39519;DHT22;25200;53.394;10.414;2022-12-08T07:56:11;3.30;91.10
39519;DHT22;25200;53.394;10.414;2022-12-08T07:58:38;3.30;91.40
39519;DHT22;25200;53.394;10.414;2022-12-08T08:01:04;3.30;91.20
39519;DHT22;25200;53.394;10.414;2022-12-08T08:03:30;3.30;91.20
39519;DHT22;25200;53.394;10.414;2022-12-08T08:06:02;3.20;91.30
39519;DHT22;25200;53.394;10.414;2022-12-08T08:08:28;3.20;91.30
39519;DHT22;25200;53.394;10.414;2022-12-08T08:10:53;3.20;91.30
39519;DHT22;25200;53.394;10.414;2022-12-08T08:13:19;3.20;91.30
39519;DHT22;25200;53.394;10.414;2022-12-08T08:15:45;3.20;91.20
39519;DHT22;25200;53.394;10.414;2022-12-08T08:18:10;3.30;91.40
39519;DHT22;25200;53.394;10.414;2022-12-08T08:20:36;3.20;91.40
39519;DHT22;25200;53.394;10.414;2022-12-08T08:23:02;3.30;91.40
39519;DHT22;25200;53.394;10.414;2022-12-08T08:25:27;3.20;91.30
39519;DHT22;25200;53.394;10.414;2022-12-08T08:27:53;3.30;91.30
39519;DHT22;25200;53.394;10.414;2022-12-08T08:30:19;3.30;91.30
39519;DHT22;25200;53.394;10.414;2022-12-08T08:32:45;3.30;91.30
39519;DHT22;25200;53.394;10.414;2022-12-08T08:35:11;3.30;91.30
39519;DHT22;25200;53.394;10.414;2022-12-08T08:37:36;3.30;91.30
39519;DHT22;25200;53.394;10.414;2022-12-08T08:40:03;3.20;91.20
39519;DHT22;25200;53.394;10.414;2022-12-08T08:42:28;3.20;91.20
39519;DHT22;25200;53.394;10.414;2022-12-08T08:44:54;3.10;91.20
39519;DHT22;25200;53.394;10.414;2022-12-08T08:47:19;3.10;91.20
39519;DHT22;25200;53.394;10.414;2022-12-08T08:49:45;3.10;91.20
39519;DHT22;25200;53.394;10.414;2022-12-08T08:52:11;3.10;91.20
39519;DHT22;25200;53.394;10.414;2022-12-08T08:54:37;3.00;91.20
39519;DHT22;25200;53.394;10.414;2022-12-08T08:57:03;3.00;91.20
39519;DHT22;25200;53.394;10.414;2022-12-08T08:59:29;3.00;91.30
39519;DHT22;25200;53.394;10.414;2022-12-08T09:01:55;3.00;91.20
39519;DHT22;25200;53.394;10.414;2022-12-08T09:04:21;3.00;91.30
39519;DHT22;25200;53.394;10.414;2022-12-08T09:06:47;3.00;91.40
39519;DHT22;25200;53.394;10.414;2022-12-08T09:09:14;3.00;91.30
39519;DHT22;25200;53.394;10.414;2022-12-08T09:11:43;3.00;91.30
39519;DHT22;25200;53.394;10.414;2022-12-08T09:14:13;2.90;91.30
39519;DHT22;25200;53.394;10.414;2022-12-08T09:16:40;2.90;91.30
39519;DHT22;25200;53.394;10.414;2022-12-08T09:19:05;2.90;91.50
39519;DHT22;25200;53.394;10.414;2022-12-08T09:21:32;2.90;91.30
39519;DHT22;25200;53.394;10.414;2022-12-08T09:23:58;2.90;91.30
39519;DHT22;25200;53.394;10.414;2022-12-08T09:26:25;2.90;91.30
39519;DHT22;25200;53.394;10.414;2022-12-08T09:28:53;2.80;91.30
39519;DHT22;25200;53.394;10.414;2022-12-08T09:31:20;2.80;91.30
39519;DHT22;25200;53.394;10.414;2022-12-08T09:33:47;2.80;91.40
39519;DHT22;25200;53.394;10.414;2022-12-08T09:36:13;2.80;91.50
39519;DHT22;25200;53.394;10.414;2022-12-08T09:38:39;2.80;91.40
39519;DHT22;25200;53.394;10.414;2022-12-08T09:41:31;2.80;91.40
39519;DHT22;25200;53.394;10.414;2022-12-08T09:46:33;2.80;91.60
39519;DHT22;25200;53.394;10.414;2022-12-08T09:49:00;2.80;91.50
39519;DHT22;25200;53.394;10.414;2022-12-08T09:51:30;2.80;91.60
39519;DHT22;25200;53.394;10.414;2022-12-08T09:54:09;2.80;91.70
39519;DHT22;25200;53.394;10.414;2022-12-08T09:56:37;2.80;91.70
39519;DHT22;25200;53.394;10.414;2022-12-08T10:01:31;2.80;91.80
39519;DHT22;25200;53.394;10.414;2022-12-08T10:03:57;2.90;91.80
39519;DHT22;25200;53.394;10.414;2022-12-08T10:09:35;3.00;91.90
39519;DHT22;25200;53.394;10.414;2022-12-08T10:12:11;3.00;91.60
39519;DHT22;25200;53.394;10.414;2022-12-08T10:14:50;3.00;91.60
39519;DHT22;25200;53.394;10.414;2022-12-08T10:17:25;3.10;91.50
39519;DHT22;25200;53.394;10.414;2022-12-08T10:20:41;3.10;91.40
39519;DHT22;25200;53.394;10.414;2022-12-08T10:28:11;3.30;91.40
39519;DHT22;25200;53.394;10.414;2022-12-08T10:30:37;3.40;91.40
39519;DHT22;25200;53.394;10.414;2022-12-08T10:33:04;3.40;91.30
39519;DHT22;25200;53.394;10.414;2022-12-08T10:35:56;3.40;91.20
39519;DHT22;25200;53.394;10.414;2022-12-08T10:38:29;3.50;91.20
39519;DHT22;25200;53.394;10.414;2022-12-08T10:43:26;3.50;91.30
39519;DHT22;25200;53.394;10.414;2022-12-08T10:45:52;3.50;91.20
39519;DHT22;25200;53.394;10.414;2022-12-08T10:48:26;3.50;91.20
39519;DHT22;25200;53.394;10.414;2022-12-08T10:50:57;3.50;91.20
39519;DHT22;25200;53.394;10.414;2022-12-08T10:53:26;3.50;91.30
39519;DHT22;25200;53.394;10.414;2022-12-08T11:03:53;3.70;91.40
39519;DHT22;25200;53.394;10.414;2022-12-08T11:11:53;3.90;91.30
39519;DHT22;25200;53.394;10.414;2022-12-08T11:17:04;3.90;91.10
39519;DHT22;25200;53.394;10.414;2022-12-08T11:19:30;3.90;91.10
39519;DHT22;25200;53.394;10.414;2022-12-08T11:21:55;3.90;91.20
39519;DHT22;25200;53.394;10.414;2022-12-08T11:24:23;3.90;91.20
39519;DHT22;25200;53.394;10.414;2022-12-08T11:27:10;3.90;91.20
39519;DHT22;25200;53.394;10.414;2022-12-08T11:29:35;3.90;91.20
39519;DHT22;25200;53.394;10.414;2022-12-08T11:32:12;3.90;91.20
39519;DHT22;25200;53.394;10.414;2022-12-08T11:39:55;4.00;91.20
39519;DHT22;25200;53.394;10.414;2022-12-08T11:42:25;4.10;91.10
39519;DHT22;25200;53.394;10.414;2022-12-08T11:44:58;4.10;91.10
39519;DHT22;25200;53.394;10.414;2022-12-08T11:47:33;4.10;91.10
39519;DHT22;25200;53.394;10.414;2022-12-08T11:52:44;4.10;91.10
39519;DHT22;25200;53.394;10.414;2022-12-08T11:55:43;4.20;91.10
39519;DHT22;25200;53.394;10.414;2022-12-08T11:58:20;4.20;91.00
39519;DHT22;25200;53.394;10.414;2022-12-08T12:00:47;4.20;91.00
39519;DHT22;25200;53.394;10.414;2022-12-08T12:03:30;4.20;91.00
39519;DHT22;25200;53.394;10.414;2022-12-08T12:06:28;4.20;91.00
39519;DHT22;25200;53.394;10.414;2022-12-08T12:12:20;4.20;91.00
39519;DHT22;25200;53.394;10.414;2022-12-08T12:20:34;4.20;91.00
39519;DHT22;25200;53.394;10.414;2022-12-08T12:23:12;4.20;91.10
39519;DHT22;25200;53.394;10.414;2022-12-08T12:25:54;4.20;91.10
39519;DHT22;25200;53.394;10.414;2022-12-08T12:28:23;4.20;91.00
39519;DHT22;25200;53.394;10.414;2022-12-08T12:31:00;4.20;91.10
39519;DHT22;25200;53.394;10.414;2022-12-08T12:33:29;4.20;91.10
39519;DHT22;25200;53.394;10.414;2022-12-08T12:35:56;4.20;91.00
39519;DHT22;25200;53.394;10.414;2022-12-08T12:38:28;4.20;91.00
39519;DHT22;25200;53.394;10.414;2022-12-08T12:41:15;4.30;91.00
39519;DHT22;25200;53.394;10.414;2022-12-08T12:57:25;4.20;91.30
39519;DHT22;25200;53.394;10.414;2022-12-08T13:02:27;4.20;91.00
39519;DHT22;25200;53.394;10.414;2022-12-08T13:15:51;4.40;91.00
39519;DHT22;25200;53.394;10.414;2022-12-08T13:18:24;4.40;91.20
39519;DHT22;25200;53.394;10.414;2022-12-08T13:21:20;4.50;91.20
39519;DHT22;25200;53.394;10.414;2022-12-08T13:29:34;4.50;91.00
39519;DHT22;25200;53.394;10.414;2022-12-08T13:32:01;4.50;91.00
39519;DHT22;25200;53.394;10.414;2022-12-08T13:34:29;4.50;91.00
39519;DHT22;25200;53.394;10.414;2022-12-08T13:37:12;4.50;91.10
39519;DHT22;25200;53.394;10.414;2022-12-08T13:39:57;4.50;91.00
39519;DHT22;25200;53.394;10.414;2022-12-08T13:42:42;4.50;91.00
39519;DHT22;25200;53.394;10.414;2022-12-08T13:57:59;4.10;91.10
39519;DHT22;25200;53.394;10.414;2022-12-08T14:00:25;4.10;91.20
39519;DHT22;25200;53.394;10.414;2022-12-08T14:03:00;4.10;91.20
39519;DHT22;25200;53.394;10.414;2022-12-08T14:05:37;4.10;91.20
39519;DHT22;25200;53.394;10.414;2022-12-08T14:08:06;4.10;91.20
39519;DHT22;25200;53.394;10.414;2022-12-08T14:10:33;4.10;91.30
39519;DHT22;25200;53.394;10.414;2022-12-08T14:13:02;4.10;91.30
39519;DHT22;25200;53.394;10.414;2022-12-08T14:15:30;4.10;91.30
39519;DHT22;25200;53.394;10.414;2022-12-08T14:17:56;4.00;91.30
39519;DHT22;25200;53.394;10.414;2022-12-08T14:20:26;4.00;91.20
39519;DHT22;25200;53.394;10.414;2022-12-08T14:22:53;4.00;91.20
39519;DHT22;25200;53.394;10.414;2022-12-08T14:25:19;4.10;91.20
39519;DHT22;25200;53.394;10.414;2022-12-08T14:27:45;4.00;91.20
39519;DHT22;25200;53.394;10.414;2022-12-08T14:37:37;4.00;91.30
39519;DHT22;25200;53.394;10.414;2022-12-08T14:42:44;3.90;91.20
39519;DHT22;25200;53.394;10.414;2022-12-08T14:45:12;3.80;91.20
39519;DHT22;25200;53.394;10.414;2022-12-08T14:47:38;3.80;91.20
39519;DHT22;25200;53.394;10.414;2022-12-08T14:50:40;3.80;91.20
39519;DHT22;25200;53.394;10.414;2022-12-08T14:53:12;3.80;91.20
39519;DHT22;25200;53.394;10.414;2022-12-08T14:55:39;3.90;91.10
39519;DHT22;25200;53.394;10.414;2022-12-08T14:58:04;3.90;91.10
39519;DHT22;25200;53.394;10.414;2022-12-08T15:00:30;3.90;91.10
39519;DHT22;25200;53.394;10.414;2022-12-08T15:02:57;3.90;91.20
39519;DHT22;25200;53.394;10.414;2022-12-08T15:05:28;3.90;91.20
39519;DHT22;25200;53.394;10.414;2022-12-08T15:08:00;3.90;91.20
39519;DHT22;25200;53.394;10.414;2022-12-08T15:10:31;3.90;91.20
39519;DHT22;25200;53.394;10.414;2022-12-08T15:16:20;3.90;91.20
39519;DHT22;25200;53.394;10.414;2022-12-08T15:21:36;3.90;91.20
39519;DHT22;25200;53.394;10.414;2022-12-08T15:24:03;3.90;91.10
39519;DHT22;25200;53.394;10.414;2022-12-08T15:26:32;3.90;91.20
39519;DHT22;25200;53.394;10.414;2022-12-08T15:29:22;3.90;91.20
39519;DHT22;25200;53.394;10.414;2022-12-08T15:31:48;3.90;91.20
39519;DHT22;25200;53.394;10.414;2022-12-08T15:34:14;3.90;91.10
39519;DHT22;25200;53.394;10.414;2022-12-08T15:36:40;3.90;91.20
39519;DHT22;25200;53.394;10.414;2022-12-08T15:39:19;3.90;91.20
39519;DHT22;25200;53.394;10.414;2022-12-08T15:41:46;3.90;91.20
39519;DHT22;25200;53.394;10.414;2022-12-08T15:44:11;3.90;91.20
39519;DHT22;25200;53.394;10.414;2022-12-08T15:46:37;3.80;91.10
39519;DHT22;25200;53.394;10.414;2022-12-08T15:49:02;3.80;91.20
39519;DHT22;25200;53.394;10.414;2022-12-08T15:51:28;3.80;91.20
39519;DHT22;25200;53.394;10.414;2022-12-08T15:53:55;3.80;91.20
39519;DHT22;25200;53.394;10.414;2022-12-08T15:56:21;3.80;91.20
39519;DHT22;25200;53.394;10.414;2022-12-08T15:58:46;3.80;91.10
39519;DHT22;25200;53.394;10.414;2022-12-08T16:01:12;3.80;91.20
39519;DHT22;25200;53.394;10.414;2022-12-08T16:03:38;3.70;91.10
39519;DHT22;25200;53.394;10.414;2022-12-08T16:06:05;3.70;91.30
39519;DHT22;25200;53.394;10.414;2022-12-08T16:08:33;3.70;91.10
39519;DHT22;25200;53.394;10.414;2022-12-08T16:10:59;3.70;91.10
39519;DHT22;25200;53.394;10.414;2022-12-08T16:13:43;3.60;91.10
39519;DHT22;25200;53.394;10.414;2022-12-08T16:16:15;3.70;91.10
39519;DHT22;25200;53.394;10.414;2022-12-08T16:18:46;3.60;91.10
39519;DHT22;25200;53.394;10.414;2022-12-08T16:21:12;3.60;91.10
39519;DHT22;25200;53.394;10.414;2022-12-08T16:23:38;3.60;91.10
39519;DHT22;25200;53.394;10.414;2022-12-08T16:26:04;3.60;91.10
39519;DHT22;25200;53.394;10.414;2022-12-08T16:28:30;3.60;91.20
39519;DHT22;25200;53.394;10.414;2022-12-08T16:30:55;3.60;91.10
39519;DHT22;25200;53.394;10.414;2022-12-08T16:33:21;3.60;91.20
39519;DHT22;25200;53.394;10.414;2022-12-08T16:35:47;3.50;91.10
39519;DHT22;25200;53.394;10.414;2022-12-08T16:38:13;3.50;91.10
39519;DHT22;25200;53.394;10.414;2022-12-08T16:40:43;3.60;91.20
39519;DHT22;25200;53.394;10.414;2022-12-08T16:43:28;3.50;91.20
39519;DHT22;25200;53.394;10.414;2022-12-08T16:45:53;3.50;91.20
39519;DHT22;25200;53.394;10.414;2022-12-08T16:48:19;3.50;91.20
39519;DHT22;25200;53.394;10.414;2022-12-08T16:50:47;3.50;91.10
39519;DHT22;25200;53.394;10.414;2022-12-08T16:53:13;3.50;91.10
39519;DHT22;25200;53.394;10.414;2022-12-08T16:55:39;3.50;91.10
39519;DHT22;25200;53.394;10.414;2022-12-08T16:58:05;3.40;91.10
39519;DHT22;25200;53.394;10.414;2022-12-08T17:00:32;3.40;91.10
39519;DHT22;25200;53.394;10.414;2022-12-08T17:03:03;3.40;91.10
39519;DHT22;25200;53.394;10.414;2022-12-08T17:05:29;3.40;91.10
39519;DHT22;25200;53.394;10.414;2022-12-08T17:07:55;3.40;91.00
39519;DHT22;25200;53.394;10.414;2022-12-08T17:10:24;3.30;91.00
39519;DHT22;25200;53.394;10.414;2022-12-08T17:12:51;3.30;90.90
39519;DHT22;25200;53.394;10.414;2022-12-08T17:15:19;3.30;90.90
39519;DHT22;25200;53.394;10.414;2022-12-08T17:17:45;3.30;91.00
39519;DHT22;25200;53.394;10.414;2022-12-08T17:20:14;3.30;91.00
39519;DHT22;25200;53.394;10.414;2022-12-08T17:22:40;3.30;91.00
39519;DHT22;25200;53.394;10.414;2022-12-08T17:25:06;3.30;91.00
39519;DHT22;25200;53.394;10.414;2022-12-08T17:27:32;3.20;91.00
39519;DHT22;25200;53.394;10.414;2022-12-08T17:29:58;3.20;91.00
39519;DHT22;25200;53.394;10.414;2022-12-08T17:32:24;3.20;91.00
39519;DHT22;25200;53.394;10.414;2022-12-08T17:34:49;3.20;91.30
39519;DHT22;25200;53.394;10.414;2022-12-08T17:37:16;3.20;91.10
39519;DHT22;25200;53.394;10.414;2022-12-08T17:39:41;3.20;91.10
39519;DHT22;25200;53.394;10.414;2022-12-08T17:42:07;3.10;91.10
39519;DHT22;25200;53.394;10.414;2022-12-08T17:44:33;3.10;91.10
39519;DHT22;25200;53.394;10.414;2022-12-08T17:47:00;3.10;91.10
39519;DHT22;25200;53.394;10.414;2022-12-08T17:49:27;3.10;91.10
39519;DHT22;25200;53.394;10.414;2022-12-08T17:52:02;3.10;91.10
39519;DHT22;25200;53.394;10.414;2022-12-08T17:54:28;3.00;91.10
39519;DHT22;25200;53.394;10.414;2022-12-08T17:56:55;3.00;91.50
39519;DHT22;25200;53.394;10.414;2022-12-08T17:59:24;3.00;91.20
39519;DHT22;25200;53.394;10.414;2022-12-08T18:01:51;2.90;91.20
39519;DHT22;25200;53.394;10.414;2022-12-08T18:04:17;3.00;91.30